sensor_id;sensor_type;location;lat;lon;timestamp;P1;durP1;ratioP1;P2;durP2;ratioP2
8482;SDS011;4278;42.668;23.312;2023-05-21T00:01:33;13.77;;;8.73;;
8482;SDS011;4278;42.668;23.312;2023-05-21T00:04:00;16.33;;;9.40;;
8482;SDS011;4278;42.668;23.312;2023-05-21T00:06:27;12.53;;;9.43;;
8482;SDS011;4278;42.668;23.312;2023-05-21T00:08:54;14.67;;;9.00;;
8482;SDS011;4278;42.668;23.312;2023-05-21T00:11:21;11.67;;;8.13;;
8482;SDS011;4278;42.668;23.312;2023-05-21T00:13:49;14.03;;;9.77;;
8482;SDS011;4278;42.668;23.312;2023-05-21T00:16:16;17.20;;;10.17;;
8482;SDS011;4278;42.668;23.312;2023-05-21T00:18:43;16.67;;;9.27;;
8482;SDS011;4278;42.668;23.312;2023-05-21T00:21:10;15.43;;;9.37;;
8482;SDS011;4278;42.668;23.312;2023-05-21T00:23:38;15.10;;;9.57;;
8482;SDS011;4278;42.668;23.312;2023-05-21T00:26:06;17.00;;;9.57;;
8482;SDS011;4278;42.668;23.312;2023-05-21T00:28:33;19.73;;;10.77;;
8482;SDS011;4278;42.668;23.312;2023-05-21T00:31:01;12.47;;;9.10;;
8482;SDS011;4278;42.668;23.312;2023-05-21T00:33:28;14.90;;;10.03;;
8482;SDS011;4278;42.668;23.312;2023-05-21T00:35:55;14.80;;;9.20;;
8482;SDS011;4278;42.668;23.312;2023-05-21T00:38:22;14.67;;;8.73;;
8482;SDS011;4278;42.668;23.312;2023-05-21T00:40:52;14.47;;;9.23;;
8482;SDS011;4278;42.668;23.312;2023-05-21T00:43:18;15.53;;;9.53;;
8482;SDS011;4278;42.668;23.312;2023-05-21T00:45:50;13.00;;;9.23;;
8482;SDS011;4278;42.668;23.312;2023-05-21T00:48:19;15.37;;;9.57;;
8482;SDS011;4278;42.668;23.312;2023-05-21T00:50:46;16.47;;;9.20;;
8482;SDS011;4278;42.668;23.312;2023-05-21T00:53:14;14.60;;;8.77;;
8482;SDS011;4278;42.668;23.312;2023-05-21T00:55:43;15.97;;;9.23;;
8482;SDS011;4278;42.668;23.312;2023-05-21T00:58:10;14.67;;;8.80;;
8482;SDS011;4278;42.668;23.312;2023-05-21T01:00:37;14.63;;;9.20;;
8482;SDS011;4278;42.668;23.312;2023-05-21T01:03:04;14.97;;;8.93;;
8482;SDS011;4278;42.668;23.312;2023-05-21T01:05:34;15.10;;;8.40;;
8482;SDS011;4278;42.668;23.312;2023-05-21T01:08:01;15.27;;;9.00;;
8482;SDS011;4278;42.668;23.312;2023-05-21T01:10:29;17.07;;;9.77;;
8482;SDS011;4278;42.668;23.312;2023-05-21T01:12:56;15.67;;;9.63;;
8482;SDS011;4278;42.668;23.312;2023-05-21T01:15:24;14.37;;;9.33;;
8482;SDS011;4278;42.668;23.312;2023-05-21T01:17:51;16.00;;;9.53;;
8482;SDS011;4278;42.668;23.312;2023-05-21T01:20:19;16.20;;;9.50;;
8482;SDS011;4278;42.668;23.312;2023-05-21T01:22:51;13.93;;;8.40;;
8482;SDS011;4278;42.668;23.312;2023-05-21T01:25:19;13.03;;;9.10;;
8482;SDS011;4278;42.668;23.312;2023-05-21T01:27:45;15.40;;;9.53;;
8482;SDS011;4278;42.668;23.312;2023-05-21T01:30:12;15.70;;;8.70;;
8482;SDS011;4278;42.668;23.312;2023-05-21T01:32:41;11.73;;;8.63;;
8482;SDS011;4278;42.668;23.312;2023-05-21T01:35:15;11.40;;;7.90;;
8482;SDS011;4278;42.668;23.312;2023-05-21T01:37:47;13.70;;;8.37;;
8482;SDS011;4278;42.668;23.312;2023-05-21T01:40:22;13.00;;;8.43;;
8482;SDS011;4278;42.668;23.312;2023-05-21T01:42:55;12.07;;;8.43;;
8482;SDS011;4278;42.668;23.312;2023-05-21T01:45:23;12.70;;;8.13;;
8482;SDS011;4278;42.668;23.312;2023-05-21T01:47:52;18.17;;;8.73;;
8482;SDS011;4278;42.668;23.312;2023-05-21T01:50:21;12.57;;;8.63;;
8482;SDS011;4278;42.668;23.312;2023-05-21T01:52:50;15.33;;;8.33;;
8482;SDS011;4278;42.668;23.312;2023-05-21T01:55:18;12.43;;;9.20;;
8482;SDS011;4278;42.668;23.312;2023-05-21T01:57:49;14.37;;;9.20;;
8482;SDS011;4278;42.668;23.312;2023-05-21T02:00:17;16.03;;;8.73;;
8482;SDS011;4278;42.668;23.312;2023-05-21T02:02:44;13.77;;;9.10;;
8482;SDS011;4278;42.668;23.312;2023-05-21T02:05:11;14.53;;;8.30;;
8482;SDS011;4278;42.668;23.312;2023-05-21T02:07:38;13.93;;;8.93;;
8482;SDS011;4278;42.668;23.312;2023-05-21T02:10:06;13.63;;;8.90;;
8482;SDS011;4278;42.668;23.312;2023-05-21T02:12:33;12.07;;;8.57;;
8482;SDS011;4278;42.668;23.312;2023-05-21T02:15:01;14.43;;;9.30;;
8482;SDS011;4278;42.668;23.312;2023-05-21T02:17:28;14.90;;;8.70;;
8482;SDS011;4278;42.668;23.312;2023-05-21T02:19:57;15.63;;;9.17;;
8482;SDS011;4278;42.668;23.312;2023-05-21T02:22:32;11.70;;;8.50;;
8482;SDS011;4278;42.668;23.312;2023-05-21T02:24:59;13.00;;;9.13;;
8482;SDS011;4278;42.668;23.312;2023-05-21T02:27:25;13.13;;;9.43;;
8482;SDS011;4278;42.668;23.312;2023-05-21T02:29:53;15.93;;;9.70;;
8482;SDS011;4278;42.668;23.312;2023-05-21T02:32:21;13.27;;;8.93;;
8482;SDS011;4278;42.668;23.312;2023-05-21T02:34:47;16.03;;;9.27;;
8482;SDS011;4278;42.668;23.312;2023-05-21T02:37:15;15.20;;;9.43;;
8482;SDS011;4278;42.668;23.312;2023-05-21T02:39:42;15.87;;;9.07;;
8482;SDS011;4278;42.668;23.312;2023-05-21T02:42:09;14.67;;;10.13;;
8482;SDS011;4278;42.668;23.312;2023-05-21T02:44:36;13.30;;;8.87;;
8482;SDS011;4278;42.668;23.312;2023-05-21T02:47:03;13.80;;;9.67;;
8482;SDS011;4278;42.668;23.312;2023-05-21T02:49:31;13.00;;;9.00;;
8482;SDS011;4278;42.668;23.312;2023-05-21T02:51:58;12.30;;;8.67;;
8482;SDS011;4278;42.668;23.312;2023-05-21T02:54:25;12.90;;;9.27;;
8482;SDS011;4278;42.668;23.312;2023-05-21T02:56:52;15.40;;;9.43;;
8482;SDS011;4278;42.668;23.312;2023-05-21T02:59:19;13.17;;;9.43;;
8482;SDS011;4278;42.668;23.312;2023-05-21T03:01:46;14.00;;;8.83;;
8482;SDS011;4278;42.668;23.312;2023-05-21T03:04:13;18.63;;;9.97;;
8482;SDS011;4278;42.668;23.312;2023-05-21T03:06:42;13.60;;;8.50;;
8482;SDS011;4278;42.668;23.312;2023-05-21T03:09:10;13.27;;;9.70;;
8482;SDS011;4278;42.668;23.312;2023-05-21T03:11:37;13.07;;;8.60;;
8482;SDS011;4278;42.668;23.312;2023-05-21T03:14:04;15.03;;;9.17;;
8482;SDS011;4278;42.668;23.312;2023-05-21T03:16:31;14.00;;;9.43;;
8482;SDS011;4278;42.668;23.312;2023-05-21T03:18:58;11.67;;;8.70;;
8482;SDS011;4278;42.668;23.312;2023-05-21T03:21:25;18.23;;;9.67;;
8482;SDS011;4278;42.668;23.312;2023-05-21T03:23:55;15.50;;;8.87;;
8482;SDS011;4278;42.668;23.312;2023-05-21T03:26:22;16.47;;;9.47;;
8482;SDS011;4278;42.668;23.312;2023-05-21T03:28:51;11.93;;;8.50;;
8482;SDS011;4278;42.668;23.312;2023-05-21T03:31:18;12.70;;;10.37;;
8482;SDS011;4278;42.668;23.312;2023-05-21T03:33:44;14.60;;;9.80;;
8482;SDS011;4278;42.668;23.312;2023-05-21T03:36:11;13.40;;;9.60;;
8482;SDS011;4278;42.668;23.312;2023-05-21T03:38:38;13.47;;;9.17;;
8482;SDS011;4278;42.668;23.312;2023-05-21T03:41:06;14.03;;;8.57;;
8482;SDS011;4278;42.668;23.312;2023-05-21T03:43:34;15.77;;;8.80;;
8482;SDS011;4278;42.668;23.312;2023-05-21T03:46:00;17.83;;;9.53;;
8482;SDS011;4278;42.668;23.312;2023-05-21T03:48:27;13.53;;;8.20;;
8482;SDS011;4278;42.668;23.312;2023-05-21T03:50:54;12.87;;;9.53;;
8482;SDS011;4278;42.668;23.312;2023-05-21T03:53:21;15.53;;;9.23;;
8482;SDS011;4278;42.668;23.312;2023-05-21T03:55:48;13.23;;;9.80;;
8482;SDS011;4278;42.668;23.312;2023-05-21T03:58:20;16.20;;;9.60;;
8482;SDS011;4278;42.668;23.312;2023-05-21T04:00:47;14.20;;;9.50;;
8482;SDS011;4278;42.668;23.312;2023-05-21T04:03:14;11.03;;;7.90;;
8482;SDS011;4278;42.668;23.312;2023-05-21T04:05:42;13.33;;;8.90;;
8482;SDS011;4278;42.668;23.312;2023-05-21T04:08:08;15.03;;;8.80;;
8482;SDS011;4278;42.668;23.312;2023-05-21T04:10:35;11.93;;;8.60;;
8482;SDS011;4278;42.668;23.312;2023-05-21T04:13:02;16.30;;;8.53;;
8482;SDS011;4278;42.668;23.312;2023-05-21T04:15:30;14.83;;;9.47;;
8482;SDS011;4278;42.668;23.312;2023-05-21T04:17:59;12.67;;;8.67;;
8482;SDS011;4278;42.668;23.312;2023-05-21T04:20:26;15.47;;;8.03;;
8482;SDS011;4278;42.668;23.312;2023-05-21T04:22:52;13.87;;;8.63;;
8482;SDS011;4278;42.668;23.312;2023-05-21T04:25:19;17.40;;;8.60;;
8482;SDS011;4278;42.668;23.312;2023-05-21T04:27:47;15.53;;;8.77;;
8482;SDS011;4278;42.668;23.312;2023-05-21T04:30:14;12.10;;;7.87;;
8482;SDS011;4278;42.668;23.312;2023-05-21T04:32:42;13.20;;;8.20;;
8482;SDS011;4278;42.668;23.312;2023-05-21T04:35:12;16.47;;;8.47;;
8482;SDS011;4278;42.668;23.312;2023-05-21T04:37:40;11.87;;;7.80;;
8482;SDS011;4278;42.668;23.312;2023-05-21T04:40:10;13.80;;;8.77;;
8482;SDS011;4278;42.668;23.312;2023-05-21T04:42:42;13.33;;;8.77;;
8482;SDS011;4278;42.668;23.312;2023-05-21T04:45:10;11.53;;;7.67;;
8482;SDS011;4278;42.668;23.312;2023-05-21T04:47:37;15.80;;;8.50;;
8482;SDS011;4278;42.668;23.312;2023-05-21T04:50:06;9.67;;;7.30;;
8482;SDS011;4278;42.668;23.312;2023-05-21T04:52:34;13.73;;;7.90;;
8482;SDS011;4278;42.668;23.312;2023-05-21T04:55:01;11.93;;;8.37;;
8482;SDS011;4278;42.668;23.312;2023-05-21T04:57:28;11.10;;;7.53;;
8482;SDS011;4278;42.668;23.312;2023-05-21T04:59:55;16.17;;;9.17;;
8482;SDS011;4278;42.668;23.312;2023-05-21T05:02:21;11.23;;;6.73;;
8482;SDS011;4278;42.668;23.312;2023-05-21T05:04:48;17.53;;;8.57;;
8482;SDS011;4278;42.668;23.312;2023-05-21T05:07:16;12.03;;;7.97;;
8482;SDS011;4278;42.668;23.312;2023-05-21T05:09:43;11.27;;;8.20;;
8482;SDS011;4278;42.668;23.312;2023-05-21T05:12:10;8.80;;;7.03;;
8482;SDS011;4278;42.668;23.312;2023-05-21T05:14:36;12.90;;;7.67;;
8482;SDS011;4278;42.668;23.312;2023-05-21T05:17:03;18.80;;;8.30;;
8482;SDS011;4278;42.668;23.312;2023-05-21T05:19:32;12.60;;;8.40;;
8482;SDS011;4278;42.668;23.312;2023-05-21T05:21:59;16.07;;;8.57;;
8482;SDS011;4278;42.668;23.312;2023-05-21T05:24:27;13.03;;;8.00;;
8482;SDS011;4278;42.668;23.312;2023-05-21T05:26:54;11.33;;;7.97;;
8482;SDS011;4278;42.668;23.312;2023-05-21T05:29:20;15.10;;;7.37;;
8482;SDS011;4278;42.668;23.312;2023-05-21T05:31:47;12.10;;;6.97;;
8482;SDS011;4278;42.668;23.312;2023-05-21T05:34:14;12.00;;;7.05;;
8482;SDS011;4278;42.668;23.312;2023-05-21T05:36:41;10.07;;;6.32;;
8482;SDS011;4278;42.668;23.312;2023-05-21T05:39:07;13.80;;;6.93;;
8482;SDS011;4278;42.668;23.312;2023-05-21T05:41:36;13.53;;;6.77;;
8482;SDS011;4278;42.668;23.312;2023-05-21T05:44:03;11.33;;;6.50;;
8482;SDS011;4278;42.668;23.312;2023-05-21T05:46:30;9.00;;;5.67;;
8482;SDS011;4278;42.668;23.312;2023-05-21T05:48:56;10.82;;;6.18;;
8482;SDS011;4278;42.668;23.312;2023-05-21T05:51:23;13.38;;;6.93;;
8482;SDS011;4278;42.668;23.312;2023-05-21T05:53:50;11.00;;;6.63;;
8482;SDS011;4278;42.668;23.312;2023-05-21T05:56:16;9.73;;;6.32;;
8482;SDS011;4278;42.668;23.312;2023-05-21T05:58:44;11.90;;;6.70;;
8482;SDS011;4278;42.668;23.312;2023-05-21T06:01:11;9.27;;;5.80;;
8482;SDS011;4278;42.668;23.312;2023-05-21T06:03:38;9.75;;;6.15;;
8482;SDS011;4278;42.668;23.312;2023-05-21T06:06:05;11.27;;;6.40;;
8482;SDS011;4278;42.668;23.312;2023-05-21T06:08:31;13.32;;;6.38;;
8482;SDS011;4278;42.668;23.312;2023-05-21T06:10:59;9.75;;;5.80;;
8482;SDS011;4278;42.668;23.312;2023-05-21T06:13:26;10.77;;;5.35;;
8482;SDS011;4278;42.668;23.312;2023-05-21T06:15:54;11.82;;;5.65;;
8482;SDS011;4278;42.668;23.312;2023-05-21T06:18:21;8.57;;;5.32;;
8482;SDS011;4278;42.668;23.312;2023-05-21T06:20:48;8.30;;;5.60;;
8482;SDS011;4278;42.668;23.312;2023-05-21T06:23:15;7.55;;;5.32;;
8482;SDS011;4278;42.668;23.312;2023-05-21T06:25:41;11.90;;;5.30;;
8482;SDS011;4278;42.668;23.312;2023-05-21T06:28:08;7.10;;;5.45;;
8482;SDS011;4278;42.668;23.312;2023-05-21T06:30:35;10.88;;;5.05;;
8482;SDS011;4278;42.668;23.312;2023-05-21T06:33:03;8.45;;;4.40;;
8482;SDS011;4278;42.668;23.312;2023-05-21T06:35:30;7.70;;;5.22;;
8482;SDS011;4278;42.668;23.312;2023-05-21T06:38:00;8.95;;;5.38;;
8482;SDS011;4278;42.668;23.312;2023-05-21T06:40:27;11.73;;;5.22;;
8482;SDS011;4278;42.668;23.312;2023-05-21T06:42:54;16.02;;;6.25;;
8482;SDS011;4278;42.668;23.312;2023-05-21T06:45:22;8.57;;;4.97;;
8482;SDS011;4278;42.668;23.312;2023-05-21T06:47:48;9.30;;;5.80;;
8482;SDS011;4278;42.668;23.312;2023-05-21T06:50:16;9.10;;;5.72;;
8482;SDS011;4278;42.668;23.312;2023-05-21T06:52:44;11.32;;;5.15;;
8482;SDS011;4278;42.668;23.312;2023-05-21T06:55:11;11.25;;;5.72;;
8482;SDS011;4278;42.668;23.312;2023-05-21T06:57:38;14.52;;;6.47;;
8482;SDS011;4278;42.668;23.312;2023-05-21T07:00:05;9.27;;;5.63;;
8482;SDS011;4278;42.668;23.312;2023-05-21T07:02:34;10.32;;;5.95;;
8482;SDS011;4278;42.668;23.312;2023-05-21T07:05:01;9.70;;;5.72;;
8482;SDS011;4278;42.668;23.312;2023-05-21T07:07:30;7.28;;;5.50;;
8482;SDS011;4278;42.668;23.312;2023-05-21T07:09:58;13.80;;;5.72;;
8482;SDS011;4278;42.668;23.312;2023-05-21T07:12:25;8.02;;;5.55;;
8482;SDS011;4278;42.668;23.312;2023-05-21T07:14:52;9.93;;;4.93;;
8482;SDS011;4278;42.668;23.312;2023-05-21T07:17:18;7.90;;;5.55;;
8482;SDS011;4278;42.668;23.312;2023-05-21T07:19:45;9.48;;;5.18;;
8482;SDS011;4278;42.668;23.312;2023-05-21T07:22:12;10.35;;;6.03;;
8482;SDS011;4278;42.668;23.312;2023-05-21T07:24:40;11.43;;;5.32;;
8482;SDS011;4278;42.668;23.312;2023-05-21T07:27:07;12.35;;;5.07;;
8482;SDS011;4278;42.668;23.312;2023-05-21T07:29:33;8.60;;;5.65;;
8482;SDS011;4278;42.668;23.312;2023-05-21T07:32:01;7.03;;;4.40;;
8482;SDS011;4278;42.668;23.312;2023-05-21T07:34:28;8.43;;;4.57;;
8482;SDS011;4278;42.668;23.312;2023-05-21T07:36:55;6.68;;;4.25;;
8482;SDS011;4278;42.668;23.312;2023-05-21T07:39:21;12.10;;;4.53;;
8482;SDS011;4278;42.668;23.312;2023-05-21T07:41:49;7.82;;;4.55;;
8482;SDS011;4278;42.668;23.312;2023-05-21T07:44:16;6.55;;;4.07;;
8482;SDS011;4278;42.668;23.312;2023-05-21T07:46:43;7.70;;;4.47;;
8482;SDS011;4278;42.668;23.312;2023-05-21T07:49:10;5.68;;;4.13;;
8482;SDS011;4278;42.668;23.312;2023-05-21T07:51:41;5.90;;;4.03;;
8482;SDS011;4278;42.668;23.312;2023-05-21T07:54:08;5.38;;;4.18;;
8482;SDS011;4278;42.668;23.312;2023-05-21T07:56:35;10.18;;;4.65;;
8482;SDS011;4278;42.668;23.312;2023-05-21T07:59:03;10.52;;;3.85;;
8482;SDS011;4278;42.668;23.312;2023-05-21T08:01:30;6.28;;;3.88;;
8482;SDS011;4278;42.668;23.312;2023-05-21T08:03:58;9.00;;;4.35;;
8482;SDS011;4278;42.668;23.312;2023-05-21T08:06:29;6.60;;;4.22;;
8482;SDS011;4278;42.668;23.312;2023-05-21T08:08:58;8.63;;;4.15;;
8482;SDS011;4278;42.668;23.312;2023-05-21T08:11:25;6.63;;;3.85;;
8482;SDS011;4278;42.668;23.312;2023-05-21T08:13:52;11.40;;;3.80;;
8482;SDS011;4278;42.668;23.312;2023-05-21T08:16:20;5.97;;;4.05;;
8482;SDS011;4278;42.668;23.312;2023-05-21T08:18:47;8.13;;;3.67;;
8482;SDS011;4278;42.668;23.312;2023-05-21T08:21:14;10.68;;;3.72;;
8482;SDS011;4278;42.668;23.312;2023-05-21T08:23:41;10.25;;;3.67;;
8482;SDS011;4278;42.668;23.312;2023-05-21T08:26:08;5.22;;;3.60;;
8482;SDS011;4278;42.668;23.312;2023-05-21T08:28:36;7.00;;;3.80;;
8482;SDS011;4278;42.668;23.312;2023-05-21T08:31:03;6.35;;;3.75;;
8482;SDS011;4278;42.668;23.312;2023-05-21T08:33:33;9.48;;;3.42;;
8482;SDS011;4278;42.668;23.312;2023-05-21T08:36:01;7.15;;;3.38;;
8482;SDS011;4278;42.668;23.312;2023-05-21T08:38:28;9.52;;;3.90;;
8482;SDS011;4278;42.668;23.312;2023-05-21T08:40:55;9.45;;;3.70;;
8482;SDS011;4278;42.668;23.312;2023-05-21T08:43:23;7.00;;;3.83;;
8482;SDS011;4278;42.668;23.312;2023-05-21T08:45:53;6.28;;;3.75;;
8482;SDS011;4278;42.668;23.312;2023-05-21T08:48:21;8.50;;;3.92;;
8482;SDS011;4278;42.668;23.312;2023-05-21T08:50:50;6.28;;;3.58;;
8482;SDS011;4278;42.668;23.312;2023-05-21T08:53:17;6.18;;;3.40;;
8482;SDS011;4278;42.668;23.312;2023-05-21T08:55:45;7.78;;;4.07;;
8482;SDS011;4278;42.668;23.312;2023-05-21T08:58:11;6.00;;;4.30;;
8482;SDS011;4278;42.668;23.312;2023-05-21T09:00:39;5.63;;;4.30;;
8482;SDS011;4278;42.668;23.312;2023-05-21T09:03:06;4.80;;;3.67;;
8482;SDS011;4278;42.668;23.312;2023-05-21T09:05:37;9.70;;;3.25;;
8482;SDS011;4278;42.668;23.312;2023-05-21T09:08:10;5.07;;;3.50;;
8482;SDS011;4278;42.668;23.312;2023-05-21T09:10:47;7.25;;;3.38;;
8482;SDS011;4278;42.668;23.312;2023-05-21T09:13:16;7.07;;;3.13;;
8482;SDS011;4278;42.668;23.312;2023-05-21T09:15:43;6.68;;;3.55;;
8482;SDS011;4278;42.668;23.312;2023-05-21T09:18:11;7.85;;;3.65;;
8482;SDS011;4278;42.668;23.312;2023-05-21T09:20:38;10.65;;;3.72;;
8482;SDS011;4278;42.668;23.312;2023-05-21T09:23:07;7.25;;;3.47;;
8482;SDS011;4278;42.668;23.312;2023-05-21T09:25:40;8.70;;;3.60;;
8482;SDS011;4278;42.668;23.312;2023-05-21T09:28:11;7.03;;;3.65;;
8482;SDS011;4278;42.668;23.312;2023-05-21T09:30:42;7.30;;;3.42;;
8482;SDS011;4278;42.668;23.312;2023-05-21T09:33:10;4.60;;;2.97;;
8482;SDS011;4278;42.668;23.312;2023-05-21T09:35:49;4.55;;;3.30;;
8482;SDS011;4278;42.668;23.312;2023-05-21T09:38:17;6.32;;;3.20;;
8482;SDS011;4278;42.668;23.312;2023-05-21T09:40:47;6.68;;;3.42;;
8482;SDS011;4278;42.668;23.312;2023-05-21T09:43:15;5.40;;;3.45;;
8482;SDS011;4278;42.668;23.312;2023-05-21T09:45:51;6.18;;;3.35;;
8482;SDS011;4278;42.668;23.312;2023-05-21T09:48:31;5.57;;;3.33;;
8482;SDS011;4278;42.668;23.312;2023-05-21T09:51:06;4.97;;;3.08;;
8482;SDS011;4278;42.668;23.312;2023-05-21T09:53:36;5.78;;;3.08;;
8482;SDS011;4278;42.668;23.312;2023-05-21T09:56:08;4.55;;;3.10;;
8482;SDS011;4278;42.668;23.312;2023-05-21T09:58:35;7.20;;;3.17;;
8482;SDS011;4278;42.668;23.312;2023-05-21T10:01:04;6.88;;;2.88;;
8482;SDS011;4278;42.668;23.312;2023-05-21T10:03:32;8.85;;;3.58;;
8482;SDS011;4278;42.668;23.312;2023-05-21T10:06:02;9.02;;;3.22;;
8482;SDS011;4278;42.668;23.312;2023-05-21T10:08:30;4.43;;;2.80;;
8482;SDS011;4278;42.668;23.312;2023-05-21T10:11:05;6.82;;;3.30;;
8482;SDS011;4278;42.668;23.312;2023-05-21T10:13:33;8.25;;;3.00;;
8482;SDS011;4278;42.668;23.312;2023-05-21T10:16:04;5.80;;;3.42;;
8482;SDS011;4278;42.668;23.312;2023-05-21T10:18:31;4.35;;;3.28;;
8482;SDS011;4278;42.668;23.312;2023-05-21T10:20:59;6.32;;;3.72;;
8482;SDS011;4278;42.668;23.312;2023-05-21T10:23:27;6.15;;;3.35;;
8482;SDS011;4278;42.668;23.312;2023-05-21T10:25:56;5.78;;;3.10;;
8482;SDS011;4278;42.668;23.312;2023-05-21T10:28:25;5.68;;;3.05;;
8482;SDS011;4278;42.668;23.312;2023-05-21T10:30:54;4.20;;;3.42;;
8482;SDS011;4278;42.668;23.312;2023-05-21T10:33:21;4.47;;;3.30;;
8482;SDS011;4278;42.668;23.312;2023-05-21T10:35:49;5.72;;;3.45;;
8482;SDS011;4278;42.668;23.312;2023-05-21T10:38:17;5.53;;;3.88;;
8482;SDS011;4278;42.668;23.312;2023-05-21T10:40:45;4.70;;;3.15;;
8482;SDS011;4278;42.668;23.312;2023-05-21T10:43:24;8.63;;;3.60;;
8482;SDS011;4278;42.668;23.312;2023-05-21T10:46:10;7.70;;;3.45;;
8482;SDS011;4278;42.668;23.312;2023-05-21T10:48:59;6.13;;;3.38;;
8482;SDS011;4278;42.668;23.312;2023-05-21T10:51:40;5.88;;;3.40;;
8482;SDS011;4278;42.668;23.312;2023-05-21T10:54:33;6.47;;;3.45;;
8482;SDS011;4278;42.668;23.312;2023-05-21T10:57:14;7.30;;;3.35;;
8482;SDS011;4278;42.668;23.312;2023-05-21T10:59:54;8.23;;;3.72;;
8482;SDS011;4278;42.668;23.312;2023-05-21T11:02:24;8.30;;;3.70;;
8482;SDS011;4278;42.668;23.312;2023-05-21T11:04:56;9.82;;;4.13;;
8482;SDS011;4278;42.668;23.312;2023-05-21T11:07:29;4.90;;;3.88;;
8482;SDS011;4278;42.668;23.312;2023-05-21T11:10:30;6.90;;;3.75;;
8482;SDS011;4278;42.668;23.312;2023-05-21T11:13:09;3.90;;;3.50;;
8482;SDS011;4278;42.668;23.312;2023-05-21T11:18:55;7.10;;;3.83;;
8482;SDS011;4278;42.668;23.312;2023-05-21T11:21:22;8.00;;;4.00;;
8482;SDS011;4278;42.668;23.312;2023-05-21T11:23:52;10.73;;;4.20;;
8482;SDS011;4278;42.668;23.312;2023-05-21T11:26:20;5.03;;;3.58;;
8482;SDS011;4278;42.668;23.312;2023-05-21T11:28:50;6.88;;;3.88;;
8482;SDS011;4278;42.668;23.312;2023-05-21T11:31:34;7.13;;;3.95;;
8482;SDS011;4278;42.668;23.312;2023-05-21T11:34:07;5.65;;;3.25;;
8482;SDS011;4278;42.668;23.312;2023-05-21T11:36:37;9.18;;;3.55;;
8482;SDS011;4278;42.668;23.312;2023-05-21T11:39:08;9.73;;;4.32;;
8482;SDS011;4278;42.668;23.312;2023-05-21T11:41:51;6.38;;;3.60;;
8482;SDS011;4278;42.668;23.312;2023-05-21T11:44:20;8.80;;;3.90;;
8482;SDS011;4278;42.668;23.312;2023-05-21T11:47:04;7.70;;;4.30;;
8482;SDS011;4278;42.668;23.312;2023-05-21T11:49:33;8.23;;;3.70;;
8482;SDS011;4278;42.668;23.312;2023-05-21T11:52:00;6.28;;;4.18;;
8482;SDS011;4278;42.668;23.312;2023-05-21T11:54:28;6.05;;;3.97;;
8482;SDS011;4278;42.668;23.312;2023-05-21T11:57:00;6.75;;;3.70;;
8482;SDS011;4278;42.668;23.312;2023-05-21T11:59:27;5.60;;;4.00;;
8482;SDS011;4278;42.668;23.312;2023-05-21T12:01:54;6.88;;;4.40;;
8482;SDS011;4278;42.668;23.312;2023-05-21T12:04:22;8.95;;;4.22;;
8482;SDS011;4278;42.668;23.312;2023-05-21T12:06:49;6.25;;;3.88;;
8482;SDS011;4278;42.668;23.312;2023-05-21T12:09:16;10.82;;;4.20;;
8482;SDS011;4278;42.668;23.312;2023-05-21T12:11:43;7.10;;;4.47;;
8482;SDS011;4278;42.668;23.312;2023-05-21T12:14:10;7.43;;;3.80;;
8482;SDS011;4278;42.668;23.312;2023-05-21T12:16:37;7.32;;;3.67;;
8482;SDS011;4278;42.668;23.312;2023-05-21T12:19:05;7.70;;;4.43;;
8482;SDS011;4278;42.668;23.312;2023-05-21T12:21:33;6.63;;;4.20;;
8482;SDS011;4278;42.668;23.312;2023-05-21T12:24:01;7.10;;;4.20;;
8482;SDS011;4278;42.668;23.312;2023-05-21T12:26:28;6.78;;;4.25;;
8482;SDS011;4278;42.668;23.312;2023-05-21T12:28:57;8.43;;;4.40;;
8482;SDS011;4278;42.668;23.312;2023-05-21T12:31:24;7.07;;;4.35;;
8482;SDS011;4278;42.668;23.312;2023-05-21T12:33:51;7.05;;;4.20;;
8482;SDS011;4278;42.668;23.312;2023-05-21T12:36:21;8.27;;;4.15;;
8482;SDS011;4278;42.668;23.312;2023-05-21T12:38:52;12.20;;;4.25;;
8482;SDS011;4278;42.668;23.312;2023-05-21T12:41:20;9.93;;;4.78;;
8482;SDS011;4278;42.668;23.312;2023-05-21T12:43:48;7.25;;;4.30;;
8482;SDS011;4278;42.668;23.312;2023-05-21T12:46:15;7.43;;;3.65;;
8482;SDS011;4278;42.668;23.312;2023-05-21T12:48:51;8.02;;;4.57;;
8482;SDS011;4278;42.668;23.312;2023-05-21T12:51:19;7.60;;;4.18;;
8482;SDS011;4278;42.668;23.312;2023-05-21T12:53:46;4.82;;;3.97;;
8482;SDS011;4278;42.668;23.312;2023-05-21T12:56:15;5.68;;;4.15;;
8482;SDS011;4278;42.668;23.312;2023-05-21T12:58:42;7.60;;;4.57;;
8482;SDS011;4278;42.668;23.312;2023-05-21T13:01:15;7.05;;;4.60;;
8482;SDS011;4278;42.668;23.312;2023-05-21T13:03:42;6.90;;;3.58;;
8482;SDS011;4278;42.668;23.312;2023-05-21T13:06:10;8.32;;;4.05;;
8482;SDS011;4278;42.668;23.312;2023-05-21T13:08:38;10.13;;;4.65;;
8482;SDS011;4278;42.668;23.312;2023-05-21T13:11:05;7.43;;;4.47;;
8482;SDS011;4278;42.668;23.312;2023-05-21T13:13:33;6.78;;;4.30;;
8482;SDS011;4278;42.668;23.312;2023-05-21T13:16:00;6.00;;;4.40;;
8482;SDS011;4278;42.668;23.312;2023-05-21T13:18:27;8.07;;;4.88;;
8482;SDS011;4278;42.668;23.312;2023-05-21T13:20:53;6.35;;;4.05;;
8482;SDS011;4278;42.668;23.312;2023-05-21T13:23:20;7.05;;;4.78;;
8482;SDS011;4278;42.668;23.312;2023-05-21T13:25:47;7.15;;;4.20;;
8482;SDS011;4278;42.668;23.312;2023-05-21T13:28:14;12.18;;;4.07;;
8482;SDS011;4278;42.668;23.312;2023-05-21T13:30:42;9.85;;;4.53;;
8482;SDS011;4278;42.668;23.312;2023-05-21T13:33:09;14.68;;;4.78;;
8482;SDS011;4278;42.668;23.312;2023-05-21T13:35:37;5.93;;;3.80;;
8482;SDS011;4278;42.668;23.312;2023-05-21T13:38:04;5.85;;;4.50;;
8482;SDS011;4278;42.668;23.312;2023-05-21T13:40:30;6.88;;;4.00;;
8482;SDS011;4278;42.668;23.312;2023-05-21T13:42:58;10.50;;;5.15;;
8482;SDS011;4278;42.668;23.312;2023-05-21T13:45:25;8.23;;;4.72;;
8482;SDS011;4278;42.668;23.312;2023-05-21T13:47:54;6.78;;;4.50;;
8482;SDS011;4278;42.668;23.312;2023-05-21T13:50:21;9.00;;;5.15;;
8482;SDS011;4278;42.668;23.312;2023-05-21T13:52:48;8.25;;;4.55;;
8482;SDS011;4278;42.668;23.312;2023-05-21T13:55:15;6.82;;;4.53;;
8482;SDS011;4278;42.668;23.312;2023-05-21T13:57:43;6.45;;;4.63;;
8482;SDS011;4278;42.668;23.312;2023-05-21T14:00:10;7.78;;;4.28;;
8482;SDS011;4278;42.668;23.312;2023-05-21T14:02:40;9.80;;;4.35;;
8482;SDS011;4278;42.668;23.312;2023-05-21T14:05:08;6.45;;;4.07;;
8482;SDS011;4278;42.668;23.312;2023-05-21T14:07:36;6.70;;;4.03;;
8482;SDS011;4278;42.668;23.312;2023-05-21T14:10:04;7.45;;;4.15;;
8482;SDS011;4278;42.668;23.312;2023-05-21T14:12:31;9.98;;;4.20;;
8482;SDS011;4278;42.668;23.312;2023-05-21T14:14:58;6.85;;;4.60;;
8482;SDS011;4278;42.668;23.312;2023-05-21T14:17:25;8.35;;;4.05;;
8482;SDS011;4278;42.668;23.312;2023-05-21T14:19:52;7.80;;;4.20;;
8482;SDS011;4278;42.668;23.312;2023-05-21T14:22:21;6.03;;;3.83;;
8482;SDS011;4278;42.668;23.312;2023-05-21T14:24:47;9.63;;;4.28;;
8482;SDS011;4278;42.668;23.312;2023-05-21T14:27:14;6.75;;;4.38;;
8482;SDS011;4278;42.668;23.312;2023-05-21T14:29:41;10.55;;;4.28;;
8482;SDS011;4278;42.668;23.312;2023-05-21T14:32:08;6.03;;;4.32;;
8482;SDS011;4278;42.668;23.312;2023-05-21T14:34:35;7.78;;;4.38;;
8482;SDS011;4278;42.668;23.312;2023-05-21T14:37:04;6.47;;;4.25;;
8482;SDS011;4278;42.668;23.312;2023-05-21T14:39:32;7.35;;;4.30;;
8482;SDS011;4278;42.668;23.312;2023-05-21T14:42:01;7.35;;;4.43;;
8482;SDS011;4278;42.668;23.312;2023-05-21T14:44:28;9.23;;;5.13;;
8482;SDS011;4278;42.668;23.312;2023-05-21T14:46:55;7.68;;;4.85;;
8482;SDS011;4278;42.668;23.312;2023-05-21T14:49:22;8.10;;;4.10;;
8482;SDS011;4278;42.668;23.312;2023-05-21T14:51:49;7.88;;;5.10;;
8482;SDS011;4278;42.668;23.312;2023-05-21T14:54:16;7.03;;;4.47;;
8482;SDS011;4278;42.668;23.312;2023-05-21T14:56:44;7.03;;;4.15;;
8482;SDS011;4278;42.668;23.312;2023-05-21T14:59:11;6.13;;;4.25;;
8482;SDS011;4278;42.668;23.312;2023-05-21T15:01:38;8.88;;;4.78;;
8482;SDS011;4278;42.668;23.312;2023-05-21T15:04:05;8.65;;;5.10;;
8482;SDS011;4278;42.668;23.312;2023-05-21T15:06:32;7.78;;;5.07;;